Time;durP1;ratioP1;P1;durP2;ratioP2;P2;SDS_P1;SDS_P2;PMS_P1;PMS_P2;Temp;Humidity;BMP_temperature;BMP_pressure;BME280_temperature;BME280_humidity;BME280_pressure;Samples;Min_cycle;Max_cycle;Signal;HPM_P1;HPM_P2
2022/04/25 00:01:04;;;;;;;12.30;8.07;;;8.90;99.90;;;;;;5058319;28;20052;-64
2022/04/25 00:03:29;;;;;;;10.73;7.90;;;8.80;99.90;;;;;;5061402;28;20510;-64
2022/04/25 00:05:55;;;;;;;12.30;7.93;;;8.90;99.90;;;;;;5058834;28;20040;-65
2022/04/25 00:08:21;;;;;;;13.88;8.60;;;8.80;99.90;;;;;;5054225;28;20436;-65
2022/04/25 00:10:46;;;;;;;15.77;8.85;;;8.80;99.90;;;;;;5069533;28;20059;-65
2022/04/25 00:13:14;;;;;;;16.48;9.60;;;8.80;99.90;;;;;;5073941;28;21000;-65
2022/04/25 00:15:41;;;;;;;13.45;9.68;;;8.90;99.90;;;;;;5074551;28;20041;-64
2022/04/25 00:18:07;;;;;;;15.43;8.55;;;8.80;99.90;;;;;;5072650;28;20064;-65
2022/04/25 00:20:32;;;;;;;17.10;8.27;;;8.90;99.90;;;;;;5073557;28;20082;-65
2022/04/25 00:23:00;;;;;;;12.25;8.48;;;8.90;99.90;;;;;;5075480;28;20151;-64
2022/04/25 00:25:28;;;;;;;13.98;9.02;;;8.90;99.90;;;;;;5075958;28;20875;-65
2022/04/25 00:27:54;;;;;;;14.98;9.52;;;8.90;99.90;;;;;;5075305;28;20083;-65
2022/04/25 00:30:20;;;;;;;14.63;8.15;;;8.50;99.90;;;;;;5074634;28;20063;-64
2022/04/25 00:32:46;;;;;;;11.60;8.50;;;8.80;99.90;;;;;;5076055;28;20052;-64
2022/04/25 00:35:11;;;;;;;14.80;9.68;;;8.80;99.90;;;;;;5075012;28;20715;-65
2022/04/25 00:37:37;;;;;;;12.57;7.68;;;8.80;99.90;;;;;;5076866;28;20056;-64
2022/04/25 00:40:03;;;;;;;19.10;8.45;;;8.70;99.90;;;;;;5076772;28;20040;-65
2022/04/25 00:42:28;;;;;;;13.57;9.18;;;8.70;99.90;;;;;;5077197;28;20056;-65
2022/04/25 00:44:54;;;;;;;15.52;9.23;;;8.70;99.90;;;;;;5076687;28;20051;-64
2022/04/25 00:47:20;;;;;;;13.55;8.43;;;8.70;99.90;;;;;;5077420;28;20867;-65
2022/04/25 00:49:46;;;;;;;11.63;8.07;;;8.70;99.90;;;;;;5076912;28;20055;-64
2022/04/25 00:52:11;;;;;;;14.57;8.70;;;8.70;99.90;;;;;;5069280;28;20036;-64
2022/04/25 00:54:37;;;;;;;15.30;9.70;;;8.70;99.90;;;;;;5076703;28;20074;-64
2022/04/25 00:57:03;;;;;;;10.80;8.65;;;8.60;99.90;;;;;;5075723;28;20196;-64
2022/04/25 00:59:29;;;;;;;13.63;8.93;;;8.60;99.90;;;;;;5076309;28;20044;-65
2022/04/25 01:01:54;;;;;;;15.07;9.20;;;8.60;99.90;;;;;;5076164;28;20090;-64
2022/04/25 01:04:21;;;;;;;12.38;8.77;;;8.60;99.90;;;;;;5075214;28;20059;-64
2022/04/25 01:06:48;;;;;;;15.00;9.63;;;8.60;99.90;;;;;;5076951;28;20915;-64
2022/04/25 01:09:14;;;;;;;15.32;9.48;;;8.50;99.90;;;;;;5076475;28;20086;-65
2022/04/25 01:11:39;;;;;;;13.32;9.68;;;8.50;99.90;;;;;;5075554;28;20388;-64
2022/04/25 01:14:16;;;;;;;13.73;9.30;;;8.50;99.90;;;;;;5075273;28;20056;-64
2022/04/25 01:16:43;;;;;;;13.90;9.40;;;8.50;99.90;;;;;;5075669;28;20564;-64
2022/04/25 01:19:09;;;;;;;17.15;9.00;;;8.50;99.90;;;;;;5074168;28;20044;-65
2022/04/25 01:21:53;;;;;;;13.35;8.93;;;8.40;99.90;;;;;;5069519;28;20207;-64
2022/04/25 01:27:17;;;;;;;12.50;8.25;;;8.30;99.90;;;;;;5074454;28;20051;-64
2022/04/25 01:29:52;;;;;;;12.50;8.82;;;8.30;99.90;;;;;;5076204;28;20126;-64
2022/04/25 01:32:20;;;;;;;13.52;9.35;;;8.20;99.90;;;;;;5069509;28;20074;-65
2022/04/25 01:34:46;;;;;;;14.25;10.82;;;8.10;99.90;;;;;;5075644;28;20530;-64
2022/04/25 01:37:13;;;;;;;11.77;8.70;;;8.10;99.90;;;;;;5074502;28;20048;-65
2022/04/25 01:39:41;;;;;;;13.77;8.63;;;8.10;99.90;;;;;;5075238;28;20130;-64
2022/04/25 01:42:07;;;;;;;13.70;9.38;;;8.00;99.90;;;;;;5075116;28;20051;-65
2022/04/25 01:44:34;;;;;;;13.70;8.27;;;8.10;99.90;;;;;;5076085;28;20412;-64
2022/04/25 01:47:00;;;;;;;13.45;8.48;;;8.10;99.90;;;;;;5075404;28;20079;-64
2022/04/25 01:49:26;;;;;;;12.07;8.57;;;8.10;99.90;;;;;;5075999;28;20122;-65
2022/04/25 01:51:52;;;;;;;11.88;8.85;;;8.10;99.90;;;;;;5073768;28;20495;-65
2022/04/25 01:54:26;;;;;;;17.30;9.02;;;8.20;99.90;;;;;;5075982;28;20079;-64
2022/04/25 01:56:54;;;;;;;13.77;8.20;;;8.20;99.90;;;;;;5074896;28;20059;-64
2022/04/25 01:59:20;;;;;;;14.93;10.20;;;8.20;99.90;;;;;;5075867;28;20047;-64
2022/04/25 02:01:46;;;;;;;21.80;9.38;;;8.30;99.90;;;;;;5075342;28;20562;-64
2022/04/25 02:04:12;;;;;;;17.77;9.38;;;8.30;99.90;;;;;;5073020;28;20059;-64
2022/04/25 02:06:37;;;;;;;12.77;8.45;;;8.40;99.90;;;;;;5075216;28;20052;-65
2022/04/25 02:09:03;;;;;;;16.00;8.68;;;8.40;99.90;;;;;;5075965;28;20066;-65
2022/04/25 02:11:31;;;;;;;12.80;9.38;;;8.30;99.90;;;;;;5076107;28;20044;-64
2022/04/25 02:13:57;;;;;;;10.95;7.68;;;8.30;99.90;;;;;;5074384;28;20510;-65
2022/04/25 02:16:24;;;;;;;15.05;8.27;;;8.30;99.90;;;;;;5074934;28;20035;-65
2022/04/25 02:18:51;;;;;;;14.38;9.43;;;8.30;99.90;;;;;;5074516;28;20920;-64
2022/04/25 02:21:17;;;;;;;14.23;9.40;;;8.30;99.90;;;;;;5074303;28;20575;-65
2022/04/25 02:23:43;;;;;;;14.82;9.27;;;8.30;99.90;;;;;;5074117;28;20056;-64
2022/04/25 02:26:09;;;;;;;13.90;8.45;;;8.30;99.90;;;;;;5074309;28;20117;-65
2022/04/25 02:28:36;;;;;;;11.50;8.25;;;8.30;99.90;;;;;;5072633;28;20048;-65
2022/04/25 02:31:01;;;;;;;13.82;8.98;;;8.30;99.90;;;;;;5074252;28;20059;-64
2022/04/25 02:33:27;;;;;;;17.10;10.02;;;8.30;99.90;;;;;;5074308;28;20036;-64
2022/04/25 02:35:53;;;;;;;12.82;8.82;;;8.40;99.90;;;;;;5073549;28;20153;-65
2022/04/25 02:38:19;;;;;;;14.90;7.53;;;8.40;99.90;;;;;;5069100;28;20051;-64
2022/04/25 02:40:44;;;;;;;12.80;8.60;;;8.40;99.90;;;;;;5075025;28;20535;-65
2022/04/25 02:43:10;;;;;;;12.57;7.80;;;8.40;99.90;;;;;;5074089;28;20083;-65
2022/04/25 02:45:35;;;;;;;13.18;6.65;;;8.30;99.90;;;;;;5073883;28;20055;-65
2022/04/25 02:48:01;;;;;;;18.05;7.32;;;8.30;99.90;;;;;;5074676;28;20071;-64
2022/04/25 02:50:27;;;;;;;10.80;6.85;;;8.30;99.90;;;;;;5074751;28;20072;-64
2022/04/25 02:52:53;;;;;;;13.18;7.88;;;8.30;99.90;;;;;;5074912;28;20048;-65
2022/04/25 02:55:20;;;;;;;12.05;7.18;;;8.30;99.90;;;;;;5075128;28;20101;-65
2022/04/25 02:57:46;;;;;;;15.55;8.13;;;8.30;99.90;;;;;;5067024;28;20135;-65
2022/04/25 03:00:12;;;;;;;11.73;7.03;;;8.20;99.90;;;;;;5073785;28;20060;-64
2022/04/25 03:02:38;;;;;;;10.52;6.50;;;8.20;99.90;;;;;;5073029;28;20056;-64
2022/04/25 03:05:04;;;;;;;15.07;8.77;;;8.20;99.90;;;;;;5075046;28;20825;-65
2022/04/25 03:07:29;;;;;;;12.48;7.57;;;8.20;99.90;;;;;;5075575;28;20095;-65
2022/04/25 03:09:55;;;;;;;10.10;7.00;;;8.20;99.90;;;;;;5074432;28;20147;-65
2022/04/25 03:12:21;;;;;;;11.13;7.60;;;8.10;99.90;;;;;;5073169;28;20098;-65
2022/04/25 03:14:46;;;;;;;15.00;7.72;;;8.10;99.90;;;;;;5073456;28;20104;-65
2022/04/25 03:17:12;;;;;;;13.40;8.77;;;8.10;99.90;;;;;;5074014;28;20392;-65
2022/04/25 03:19:38;;;;;;;11.73;7.47;;;8.20;99.90;;;;;;5074710;28;20561;-64
2022/04/25 03:22:04;;;;;;;12.93;7.13;;;8.20;99.90;;;;;;5075745;28;20052;-64
2022/04/25 03:24:30;;;;;;;11.15;7.38;;;8.20;99.90;;;;;;5074671;28;20061;-65
2022/04/25 03:26:56;;;;;;;16.85;7.85;;;8.20;99.90;;;;;;5074018;28;20040;-64
2022/04/25 03:29:22;;;;;;;14.68;8.98;;;8.20;99.90;;;;;;5074251;28;20541;-64
2022/04/25 03:31:48;;;;;;;13.93;8.43;;;8.20;99.90;;;;;;5075399;28;20052;-65
2022/04/25 03:34:14;;;;;;;10.77;8.02;;;8.20;99.90;;;;;;5078186;28;20064;-65
2022/04/25 03:36:39;;;;;;;10.55;7.47;;;8.10;99.90;;;;;;5077523;28;20052;-64
2022/04/25 03:39:06;;;;;;;12.70;9.25;;;8.10;99.90;;;;;;5075705;28;20497;-63
2022/04/25 03:41:31;;;;;;;11.63;8.02;;;8.00;99.90;;;;;;5078332;28;20515;-64
2022/04/25 03:43:57;;;;;;;10.45;8.32;;;8.00;99.90;;;;;;5077955;28;20040;-64
2022/04/25 03:46:23;;;;;;;8.63;7.50;;;8.00;99.90;;;;;;5077542;28;20044;-64
2022/04/25 03:48:48;;;;;;;12.60;9.70;;;8.00;99.90;;;;;;5077290;28;20155;-64
2022/04/25 03:51:14;;;;;;;14.20;8.13;;;8.00;99.90;;;;;;5077794;28;20553;-64
2022/04/25 03:53:40;;;;;;;13.15;8.30;;;8.00;99.90;;;;;;5077964;28;20083;-64
2022/04/25 03:58:50;;;;;;;12.13;8.75;;;8.00;99.90;;;;;;5077758;28;20604;-63
2022/04/25 04:01:16;;;;;;;13.63;8.15;;;8.00;99.90;;;;;;5077661;28;20040;-64
2022/04/25 04:03:41;;;;;;;12.80;8.25;;;8.00;99.90;;;;;;5077106;28;20834;-64
2022/04/25 04:06:12;;;;;;;13.45;7.97;;;7.90;99.90;;;;;;5075165;28;20052;-63
2022/04/25 04:08:38;;;;;;;11.82;9.00;;;7.90;99.90;;;;;;5076830;28;20083;-64
2022/04/25 04:11:05;;;;;;;11.60;7.57;;;7.90;99.90;;;;;;5075592;28;20159;-63
2022/04/25 04:13:30;;;;;;;11.38;7.20;;;7.90;99.90;;;;;;5077438;28;20564;-63
2022/04/25 04:15:56;;;;;;;12.68;7.93;;;7.90;99.90;;;;;;5076733;28;20048;-64
2022/04/25 04:18:23;;;;;;;10.88;7.82;;;8.00;99.90;;;;;;5076962;28;20094;-64
2022/04/25 04:20:49;;;;;;;9.77;7.13;;;8.00;99.90;;;;;;5076766;28;20776;-64
2022/04/25 04:23:15;;;;;;;10.13;6.88;;;8.00;99.90;;;;;;5077064;28;20754;-64
2022/04/25 04:25:41;;;;;;;10.63;6.70;;;8.00;99.90;;;;;;5076642;28;20112;-64
2022/04/25 04:28:06;;;;;;;8.60;6.07;;;8.10;99.90;;;;;;5075438;28;20586;-64
2022/04/25 04:30:33;;;;;;;9.63;5.63;;;8.10;99.90;;;;;;5075882;28;20040;-63
2022/04/25 04:32:59;;;;;;;13.68;7.30;;;8.10;99.90;;;;;;5075676;28;20071;-64
2022/04/25 04:38:09;;;;;;;11.95;7.57;;;8.10;99.90;;;;;;5074448;28;20490;-63
2022/04/25 04:40:35;;;;;;;9.63;6.60;;;8.10;99.90;;;;;;5077087;28;20040;-64
2022/04/25 04:43:02;;;;;;;8.57;6.90;;;8.20;99.90;;;;;;5076019;28;20050;-64
2022/04/25 04:45:28;;;;;;;12.10;6.78;;;8.20;99.90;;;;;;5076590;28;20077;-64
2022/04/25 04:47:54;;;;;;;9.77;7.22;;;8.20;99.90;;;;;;5076190;28;20495;-63
2022/04/25 04:50:20;;;;;;;12.52;7.35;;;9.00;99.90;;;;;;5076759;28;20051;-64
2022/04/25 04:52:51;;;;;;;11.20;6.78;;;8.20;99.90;;;;;;5075350;28;20051;-63
2022/04/25 04:55:16;;;;;;;8.88;6.82;;;8.20;99.90;;;;;;5075358;28;20044;-63
2022/04/25 04:57:43;;;;;;;8.68;6.07;;;8.20;99.90;;;;;;5076506;28;20074;-64
2022/04/25 05:00:11;;;;;;;9.15;7.30;;;8.20;99.90;;;;;;5076506;28;20044;-64
2022/04/25 05:02:36;;;;;;;10.93;7.00;;;8.20;99.90;;;;;;5075823;28;20594;-64
2022/04/25 05:05:03;;;;;;;10.95;7.25;;;8.30;99.90;;;;;;5074729;28;20132;-64
2022/04/25 05:07:29;;;;;;;11.02;7.45;;;8.20;99.90;;;;;;5076452;28;20096;-64
2022/04/25 05:09:55;;;;;;;10.82;6.50;;;8.20;99.90;;;;;;5075777;28;20056;-64
2022/04/25 05:12:20;;;;;;;11.48;8.15;;;8.20;99.90;;;;;;5076191;28;20479;-64
2022/04/25 05:14:46;;;;;;;12.32;7.72;;;8.20;99.90;;;;;;5074133;28;20482;-64
2022/04/25 05:17:12;;;;;;;18.60;7.78;;;8.20;99.90;;;;;;5074108;28;20142;-64
2022/04/25 05:19:37;;;;;;;8.88;7.53;;;8.10;99.90;;;;;;5076157;28;20066;-64
2022/04/25 05:22:04;;;;;;;11.57;6.25;;;8.20;99.90;;;;;;5076042;28;20036;-63
2022/04/25 05:24:29;;;;;;;9.27;6.47;;;8.20;99.90;;;;;;5073962;28;20173;-64
2022/04/25 05:26:55;;;;;;;9.23;6.38;;;8.20;99.90;;;;;;5074275;28;20135;-63
2022/04/25 05:29:21;;;;;;;7.72;6.45;;;8.20;99.90;;;;;;5072875;28;20040;-64
2022/04/25 05:31:46;;;;;;;12.05;7.13;;;8.20;99.90;;;;;;5072939;28;20804;-64
2022/04/25 05:34:14;;;;;;;10.30;6.63;;;8.20;99.90;;;;;;5073751;28;20048;-64
2022/04/25 05:36:40;;;;;;;14.13;7.60;;;8.20;99.90;;;;;;5073651;28;20052;-64
2022/04/25 05:39:06;;;;;;;8.88;6.50;;;8.30;99.90;;;;;;5073153;28;20047;-64
2022/04/25 05:41:32;;;;;;;10.52;6.80;;;8.30;99.90;;;;;;5072272;28;20043;-64
2022/04/25 05:43:57;;;;;;;12.30;6.90;;;8.30;99.90;;;;;;5072852;28;20568;-64
2022/04/25 05:46:23;;;;;;;13.15;7.53;;;8.30;99.90;;;;;;5073251;28;20031;-64
2022/04/25 05:54:18;;;;;;;9.90;6.63;;;8.40;99.90;;;;;;5072160;28;20056;-64
2022/04/25 05:56:44;;;;;;;8.45;6.32;;;8.40;99.90;;;;;;5073121;28;20468;-65
2022/04/25 05:59:10;;;;;;;7.90;5.93;;;8.50;99.90;;;;;;5072618;28;20917;-64
2022/04/25 06:01:35;;;;;;;8.88;7.03;;;8.40;99.90;;;;;;5064037;28;20239;-65
2022/04/25 06:04:01;;;;;;;10.15;7.00;;;8.50;99.90;;;;;;5057344;28;20070;-65
2022/04/25 06:06:26;;;;;;;12.60;7.40;;;8.50;99.90;;;;;;5056068;28;20083;-66
2022/04/25 06:08:52;;;;;;;8.85;6.15;;;8.60;99.90;;;;;;5059042;28;20052;-65
2022/04/25 06:11:18;;;;;;;9.48;6.53;;;8.60;99.90;;;;;;5062519;28;20057;-66
2022/04/25 06:13:44;;;;;;;9.38;7.22;;;8.60;99.90;;;;;;5036164;28;20881;-65
2022/04/25 06:16:13;;;;;;;11.43;7.53;;;8.60;99.90;;;;;;5065571;28;20040;-66
2022/04/25 06:18:39;;;;;;;14.35;7.05;;;8.60;99.90;;;;;;5053777;28;20049;-66
2022/04/25 06:21:04;;;;;;;11.65;8.38;;;8.60;99.90;;;;;;5060237;28;20040;-66
2022/04/25 06:23:31;;;;;;;11.18;7.60;;;8.60;99.90;;;;;;5060028;28;20866;-66
2022/04/25 06:25:57;;;;;;;11.40;7.20;;;8.60;99.90;;;;;;5059946;28;20122;-66
2022/04/25 06:28:24;;;;;;;9.93;6.90;;;8.60;99.90;;;;;;5050206;28;20044;-66
2022/04/25 06:30:51;;;;;;;15.55;7.30;;;8.70;99.90;;;;;;5060701;28;20135;-66
2022/04/25 06:33:17;;;;;;;8.90;6.82;;;8.60;99.90;;;;;;5051789;28;20492;-66
2022/04/25 06:35:43;;;;;;;6.20;5.47;;;8.70;99.90;;;;;;5056309;28;20858;-65
2022/04/25 06:38:09;;;;;;;8.65;6.40;;;8.60;99.90;;;;;;5052881;28;20044;-66
2022/04/25 06:40:35;;;;;;;11.05;7.32;;;8.60;99.90;;;;;;5070915;28;20070;-66
2022/04/25 06:43:01;;;;;;;11.63;6.10;;;8.60;99.90;;;;;;4706525;28;9999807;-63
2022/04/25 06:45:26;;;;;;;11.63;7.53;;;8.60;99.90;;;;;;5056411;28;20147;-67
2022/04/25 06:47:53;;;;;;;21.90;7.20;;;8.60;99.90;;;;;;5050195;28;20054;-66
2022/04/25 06:50:18;;;;;;;9.05;6.72;;;8.60;99.90;;;;;;5056731;28;20792;-66
2022/04/25 06:52:45;;;;;;;10.35;7.05;;;8.60;99.90;;;;;;5056511;28;20120;-66
2022/04/25 06:55:10;;;;;;;14.63;8.40;;;8.50;99.90;;;;;;5048013;28;20110;-66
2022/04/25 06:57:36;;;;;;;12.13;7.22;;;8.50;99.90;;;;;;5054243;28;20115;-66
2022/04/25 07:00:11;;;;;;;11.07;6.43;;;8.50;99.90;;;;;;5050706;28;20332;-66
2022/04/25 07:02:37;;;;;;;14.27;6.57;;;8.50;99.90;;;;;;5046432;28;20059;-65
2022/04/25 07:05:05;;;;;;;8.20;6.10;;;8.60;99.90;;;;;;5046031;28;20048;-64
2022/04/25 07:07:31;;;;;;;10.13;7.70;;;8.50;99.90;;;;;;5057092;28;20048;-65
2022/04/25 07:09:58;;;;;;;8.18;6.70;;;8.60;99.90;;;;;;5061986;28;20083;-64
2022/04/25 07:12:23;;;;;;;12.38;6.88;;;8.50;99.90;;;;;;5066148;28;20057;-64
2022/04/25 07:14:49;;;;;;;8.90;6.25;;;8.50;99.90;;;;;;5056252;28;20047;-64
2022/04/25 07:17:15;;;;;;;7.93;6.35;;;8.50;99.90;;;;;;5063951;28;21636;-64
2022/04/25 07:19:41;;;;;;;12.52;6.55;;;8.50;99.90;;;;;;5061585;28;20056;-64
2022/04/25 07:30:21;;;;;;;7.68;6.15;;;8.40;99.90;;;;;;5056429;28;20052;-64
2022/04/25 07:32:47;;;;;;;11.23;6.25;;;8.40;99.90;;;;;;5060864;28;20067;-64
2022/04/25 07:35:12;;;;;;;11.55;8.02;;;8.50;99.90;;;;;;5059440;28;20049;-64
2022/04/25 07:37:39;;;;;;;11.50;6.97;;;8.50;99.90;;;;;;5061012;28;20039;-64
2022/04/25 07:40:08;;;;;;;11.88;7.15;;;8.50;99.90;;;;;;5060661;28;20750;-64
2022/04/25 07:42:34;;;;;;;16.02;6.47;;;8.50;99.90;;;;;;5058357;28;20044;-65
2022/04/25 07:45:00;;;;;;;10.13;7.20;;;8.50;99.90;;;;;;5059785;28;20040;-64
2022/04/25 07:47:26;;;;;;;14.05;7.45;;;8.50;99.90;;;;;;5059192;28;20216;-65
2022/04/25 07:49:51;;;;;;;13.13;8.32;;;8.40;99.90;;;;;;5058285;28;20167;-65
2022/04/25 07:52:17;;;;;;;13.90;8.57;;;8.50;99.90;;;;;;5060428;28;20089;-65
2022/04/25 07:54:43;;;;;;;13.38;9.15;;;8.50;99.90;;;;;;5055868;28;20057;-65
2022/04/25 07:57:09;;;;;;;11.63;7.90;;;8.40;99.90;;;;;;5058899;28;20048;-65
2022/04/25 07:59:35;;;;;;;12.93;8.63;;;8.40;99.90;;;;;;5061315;28;20047;-65
2022/04/25 08:02:02;;;;;;;14.43;9.70;;;8.40;99.90;;;;;;5062369;28;20151;-64
2022/04/25 08:04:28;;;;;;;12.60;10.05;;;8.40;99.90;;;;;;5056438;28;20045;-65
2022/04/25 08:06:53;;;;;;;11.63;8.27;;;8.40;99.90;;;;;;5061092;28;20059;-65
2022/04/25 08:09:19;;;;;;;13.00;9.88;;;8.40;99.90;;;;;;5062739;28;20045;-65
2022/04/25 08:11:45;;;;;;;16.20;8.00;;;8.40;99.90;;;;;;5060410;28;20041;-65
2022/04/25 08:19:39;;;;;;;12.63;7.95;;;8.40;99.90;;;;;;5055450;28;20056;-65
2022/04/25 08:22:09;;;;;;;14.68;7.90;;;8.40;99.90;;;;;;5056766;28;20048;-65
2022/04/25 08:24:36;;;;;;;14.35;8.07;;;8.40;99.90;;;;;;5055899;28;20051;-63
2022/04/25 08:27:06;;;;;;;12.65;7.95;;;8.40;99.90;;;;;;5052018;28;20056;-63
2022/04/25 08:29:32;;;;;;;11.15;7.80;;;8.40;99.90;;;;;;5061608;28;20048;-63
2022/04/25 08:31:58;;;;;;;13.00;8.15;;;8.50;99.90;;;;;;5061495;28;20064;-64
2022/04/25 08:34:24;;;;;;;9.45;6.35;;;8.50;99.90;;;;;;5066958;28;20052;-63
2022/04/25 08:36:50;;;;;;;15.23;7.30;;;8.50;99.90;;;;;;5065049;28;20043;-64
2022/04/25 08:39:15;;;;;;;11.85;7.00;;;8.50;99.90;;;;;;5057400;28;20044;-64
2022/04/25 08:41:46;;;;;;;17.58;7.30;;;8.50;99.90;;;;;;5058669;28;20045;-64
2022/04/25 08:44:14;;;;;;;10.95;6.68;;;8.60;99.90;;;;;;5058153;28;20036;-64
2022/04/25 08:46:40;;;;;;;11.15;6.95;;;8.60;99.90;;;;;;5055797;28;20049;-64
2022/04/25 08:49:06;;;;;;;10.50;7.05;;;8.50;99.90;;;;;;5059170;28;20044;-65
2022/04/25 08:51:35;;;;;;;11.73;6.85;;;8.50;99.90;;;;;;5060758;28;20157;-64
2022/04/25 08:54:03;;;;;;;9.30;7.30;;;8.50;99.90;;;;;;5062857;28;20159;-65
2022/04/25 08:56:29;;;;;;;9.73;7.10;;;8.40;99.90;;;;;;5064106;28;20039;-65
2022/04/25 08:58:56;;;;;;;8.88;6.40;;;8.40;99.90;;;;;;5055023;28;20699;-64
2022/04/25 09:01:22;;;;;;;7.85;6.00;;;8.50;99.90;;;;;;5071110;28;20044;-64
2022/04/25 09:03:47;;;;;;;8.00;5.80;;;8.60;99.90;;;;;;5055347;28;20075;-64
2022/04/25 09:06:13;;;;;;;8.57;4.70;;;8.70;99.90;;;;;;5067936;28;20801;-64
2022/04/25 09:08:38;;;;;;;7.75;5.45;;;8.80;99.90;;;;;;5073236;28;20074;-64
2022/04/25 09:13:49;;;;;;;6.60;3.85;;;8.90;99.90;;;;;;5073867;28;20056;-64
2022/04/25 09:16:16;;;;;;;7.55;5.68;;;8.90;99.90;;;;;;5073343;28;20048;-65
2022/04/25 09:18:42;;;;;;;7.63;5.68;;;8.90;99.90;;;;;;5073057;28;20055;-65
2022/04/25 09:21:08;;;;;;;7.85;4.88;;;9.00;99.90;;;;;;5074255;28;20051;-64
2022/04/25 09:23:33;;;;;;;6.43;5.20;;;9.10;99.90;;;;;;5072844;28;20043;-65
2022/04/25 09:26:09;;;;;;;7.07;4.68;;;9.20;99.90;;;;;;5057729;28;20040;-64
2022/04/25 09:28:54;;;;;;;10.02;5.30;;;9.30;99.90;;;;;;5073565;28;20048;-65
2022/04/25 09:31:27;;;;;;;6.10;5.45;;;9.40;99.90;;;;;;5073177;28;20040;-65
2022/04/25 09:33:54;;;;;;;6.20;5.60;;;9.50;99.90;;;;;;5073794;28;20110;-65
2022/04/25 09:36:21;;;;;;;6.28;5.03;;;9.60;99.90;;;;;;5075312;28;20051;-65
2022/04/25 09:38:47;;;;;;;7.93;5.45;;;9.60;99.90;;;;;;5074474;28;20052;-65
2022/04/25 09:41:14;;;;;;;6.95;5.80;;;9.60;99.90;;;;;;5074697;28;20047;-65
2022/04/25 09:43:42;;;;;;;6.72;4.88;;;9.70;99.90;;;;;;5074457;28;20044;-64
2022/04/25 09:46:13;;;;;;;10.27;5.45;;;9.60;99.90;;;;;;5075586;28;20055;-60
2022/04/25 09:48:41;;;;;;;7.85;5.18;;;9.70;99.90;;;;;;5065921;28;20127;-65
2022/04/25 09:51:08;;;;;;;7.03;5.68;;;9.80;99.90;;;;;;5062253;28;20101;-64
2022/04/25 09:53:46;;;;;;;10.02;5.80;;;9.80;99.90;;;;;;5067439;28;20054;-64
2022/04/25 09:56:28;;;;;;;8.90;5.53;;;10.00;99.90;;;;;;5059391;28;20069;-64
2022/04/25 09:59:01;;;;;;;6.05;5.18;;;10.00;99.90;;;;;;5070575;28;20047;-64
2022/04/25 10:01:27;;;;;;;;;;;10.10;99.90;;;;;;5055167;28;20148;-64
2022/04/25 10:03:53;;;;;;;8.13;4.88;;;10.20;99.90;;;;;;5052728;28;19974;-64
2022/04/25 10:06:21;;;;;;;12.70;5.72;;;10.20;99.90;;;;;;5066182;28;20080;-64
2022/04/25 10:08:48;;;;;;;5.22;4.28;;;10.20;99.90;;;;;;5068944;28;20067;-64
2022/04/25 10:11:17;;;;;;;9.32;5.07;;;10.30;99.90;;;;;;5073435;28;20789;-64
2022/04/25 10:13:42;;;;;;;6.20;4.55;;;10.30;99.90;;;;;;5073108;28;20117;-64
2022/04/25 10:16:08;;;;;;;10.70;5.95;;;10.50;99.90;;;;;;5073634;28;20044;-64
2022/04/25 10:18:35;;;;;;;9.68;5.57;;;10.60;99.90;;;;;;5074047;28;20143;-64
2022/04/25 10:21:02;;;;;;;7.35;5.05;;;10.70;99.90;;;;;;5074745;28;20056;-64
2022/04/25 10:23:28;;;;;;;7.57;5.53;;;10.70;99.90;;;;;;5075020;28;20052;-64
2022/04/25 10:25:59;;;;;;;7.15;4.90;;;10.80;99.90;;;;;;5065951;28;20076;-64
2022/04/25 10:28:50;;;;;;;9.68;5.00;;;10.90;99.90;;;;;;5053663;28;20139;-64
2022/04/25 10:31:23;;;;;;;7.75;4.18;;;11.00;99.90;;;;;;5055272;28;20052;-64
2022/04/25 10:33:58;;;;;;;7.45;4.97;;;11.10;99.90;;;;;;5054104;28;20048;-64
2022/04/25 10:36:39;;;;;;;9.38;5.20;;;11.20;99.90;;;;;;5055065;28;20071;-64
2022/04/25 10:39:46;;;;;;;8.95;5.38;;;11.30;99.90;;;;;;5054220;28;20135;-64
2022/04/25 10:44:59;;;;;;;9.93;5.53;;;10.80;99.90;;;;;;5052333;28;20182;-64
2022/04/25 10:47:26;;;;;;;8.27;5.07;;;11.60;99.90;;;;;;5065886;28;20058;-64
2022/04/25 10:49:56;;;;;;;7.43;5.25;;;11.60;99.90;;;;;;5074611;28;20040;-64
2022/04/25 10:52:33;;;;;;;8.52;5.82;;;11.70;99.90;;;;;;5075058;28;20530;-64
2022/04/25 10:55:32;;;;;;;6.35;4.75;;;11.70;99.90;;;;;;5074222;28;20071;-65
2022/04/25 10:58:04;;;;;;;7.93;5.13;;;11.70;99.90;;;;;;5073570;28;20051;-64
2022/04/25 11:00:41;;;;;;;7.05;5.25;;;11.80;99.90;;;;;;5073126;28;20052;-65
2022/04/25 11:03:19;;;;;;;8.05;4.88;;;11.90;99.90;;;;;;5074532;28;20067;-64
2022/04/25 11:05:56;;;;;;;8.40;5.40;;;12.00;99.90;;;;;;5075179;28;20166;-64
2022/04/25 11:08:24;;;;;;;5.90;5.00;;;12.10;99.90;;;;;;5074648;28;20044;-64
2022/04/25 11:11:20;;;;;;;8.07;5.10;;;12.20;99.90;;;;;;5073625;28;20105;-65
2022/04/25 11:13:49;;;;;;;7.05;4.63;;;12.20;99.90;;;;;;5052544;28;20610;-64
2022/04/25 11:16:22;;;;;;;7.65;4.80;;;12.30;99.90;;;;;;5074745;28;20091;-65
2022/04/25 11:19:11;;;;;;;7.55;4.78;;;12.50;99.90;;;;;;5074858;28;20440;-64
2022/04/25 11:21:45;;;;;;;12.73;5.18;;;12.60;99.90;;;;;;5074256;28;20054;-64
2022/04/25 11:24:46;;;;;;;11.43;5.25;;;12.50;99.90;;;;;;5073075;28;20977;-64
2022/04/25 11:27:14;;;;;;;8.50;5.70;;;12.50;99.90;;;;;;4991286;28;20053;-64
2022/04/25 11:29:47;;;;;;;6.55;5.05;;;12.50;99.90;;;;;;5057598;28;20052;-64
2022/04/25 11:32:24;;;;;;;8.90;4.95;;;12.40;99.90;;;;;;5074584;28;20051;-64
2022/04/25 11:34:50;;;;;;;6.35;4.53;;;12.50;99.90;;;;;;5073827;28;20087;-64
2022/04/25 11:37:15;;;;;;;7.18;5.03;;;12.50;99.90;;;;;;5074272;28;20156;-64
2022/04/25 11:39:55;;;;;;;9.07;5.13;;;12.40;99.90;;;;;;5073249;28;20048;-64
2022/04/25 11:42:20;;;;;;;6.53;4.68;;;12.50;99.90;;;;;;5072207;28;20048;-64
2022/04/25 11:44:46;;;;;;;6.93;4.95;;;12.70;99.90;;;;;;5073604;28;20101;-64
2022/04/25 11:47:12;;;;;;;8.43;5.10;;;12.80;99.90;;;;;;5073936;28;20152;-65
2022/04/25 11:49:38;;;;;;;7.18;5.68;;;12.80;99.90;;;;;;5073523;28;20044;-64
2022/04/25 11:52:14;;;;;;;9.43;5.15;;;12.80;99.90;;;;;;5073984;28;20044;-64
2022/04/25 11:54:42;;;;;;;6.35;5.10;;;12.90;99.90;;;;;;5077223;28;20225;-65
2022/04/25 11:57:08;;;;;;;11.93;6.20;;;12.90;99.90;;;;;;5076971;28;20051;-64
2022/04/25 11:59:33;;;;;;;8.40;5.13;;;12.90;99.90;;;;;;5076895;28;20040;-65
2022/04/25 12:01:59;;;;;;;7.55;5.28;;;12.70;99.90;;;;;;5078124;28;20048;-64
2022/04/25 12:04:25;;;;;;;7.35;5.10;;;12.80;99.90;;;;;;5077148;28;20056;-65
2022/04/25 12:06:55;;;;;;;11.50;6.13;;;12.70;99.90;;;;;;5077819;28;20036;-64
2022/04/25 12:17:41;;;;;;;8.88;6.30;;;12.80;99.90;;;;;;5077080;28;20127;-64
2022/04/25 12:20:09;;;;;;;8.00;5.95;;;12.90;99.90;;;;;;5077273;28;20101;-65
2022/04/25 12:22:39;;;;;;;7.95;5.10;;;13.00;99.90;;;;;;5077558;28;20121;-64
2022/04/25 12:25:19;;;;;;;6.97;5.55;;;13.10;99.90;;;;;;5076691;28;20950;-64
2022/04/25 12:28:03;;;;;;;9.48;5.25;;;13.30;99.90;;;;;;5077129;28;20047;-65
2022/04/25 12:30:32;;;;;;;6.40;5.68;;;13.50;99.30;;;;;;5076758;28;20044;-64
2022/04/25 12:33:09;;;;;;;8.27;5.75;;;13.50;99.20;;;;;;5075871;28;20492;-64
2022/04/25 12:35:36;;;;;;;8.68;5.85;;;13.60;99.40;;;;;;5077071;28;20331;-65
2022/04/25 12:38:03;;;;;;;7.55;5.97;;;13.70;99.20;;;;;;5077038;28;20043;-64
2022/04/25 12:40:29;;;;;;;8.63;5.53;;;13.80;98.70;;;;;;5076819;28;20576;-64
2022/04/25 12:42:56;;;;;;;9.70;5.15;;;13.70;98.90;;;;;;5077547;28;20239;-64
2022/04/25 12:45:23;;;;;;;6.85;4.88;;;14.50;99.30;;;;;;5076980;28;20063;-64
2022/04/25 12:47:58;;;;;;;8.43;6.25;;;13.80;99.00;;;;;;5076232;28;20373;-64
2022/04/25 12:50:44;;;;;;;7.80;5.43;;;13.70;98.40;;;;;;5076457;28;20048;-64
2022/04/25 12:53:10;;;;;;;7.82;4.95;;;13.60;98.10;;;;;;5076983;28;20093;-64
2022/04/25 12:55:49;;;;;;;7.32;4.90;;;13.60;98.90;;;;;;5076096;28;20735;-64
2022/04/25 12:58:15;;;;;;;6.75;5.05;;;13.50;98.30;;;;;;5076931;28;20075;-64
2022/04/25 13:00:47;;;;;;;9.05;6.22;;;13.40;98.90;;;;;;5076294;28;20231;-64
2022/04/25 13:03:13;;;;;;;9.93;6.45;;;13.40;99.10;;;;;;5077039;28;20091;-64
2022/04/25 13:05:39;;;;;;;8.68;5.95;;;13.30;99.20;;;;;;5075972;28;20047;-64
2022/04/25 13:08:05;;;;;;;6.22;5.25;;;13.30;99.40;;;;;;5075058;28;20058;-64
2022/04/25 13:10:32;;;;;;;5.63;4.88;;;13.30;99.40;;;;;;5076230;28;20136;-63
2022/04/25 13:12:57;;;;;;;7.47;5.18;;;13.20;99.10;;;;;;5074689;28;20048;-63
2022/04/25 13:15:31;;;;;;;8.73;4.43;;;13.20;99.20;;;;;;5071843;28;20103;-63
2022/04/25 13:17:58;;;;;;;5.53;4.05;;;13.10;98.70;;;;;;5075554;28;20895;-63
2022/04/25 13:20:28;;;;;;;6.22;4.93;;;13.10;99.00;;;;;;5075771;28;20048;-63
2022/04/25 13:22:54;;;;;;;7.85;5.30;;;13.00;99.20;;;;;;5075149;28;20059;-63
2022/04/25 13:25:22;;;;;;;6.40;4.25;;;13.10;99.30;;;;;;5075543;28;20052;-63
2022/04/25 13:27:48;;;;;;;8.48;5.05;;;13.00;99.10;;;;;;5074707;28;20594;-63
2022/04/25 13:30:16;;;;;;;5.72;4.45;;;13.10;99.00;;;;;;5075739;28;20048;-64
2022/04/25 13:32:45;;;;;;;6.72;4.18;;;13.00;99.00;;;;;;5076174;28;20048;-63